<?xml version="1.0" encoding="UTF-8" standalone="no" ?>
<gpx xmlns="http://www.topografix.com/GPX/1/1" xmlns:xsi="http://www.w3.org/2001/XMLSchema-instance" xsi:schemaLocation="http://www.topografix.com/GPX/1/1 http://www.topografix.com/GPX/1/1/gpx.xsd" version="1.1" creator="VisuGPX - https://www.visugpx.com">
  <metadata>
    <name>46 - Porte-du-Quercy : le Boulvé</name>
    <desc><![CDATA[Cet itinéraire fait partie de la collection de EquiLiberté : www.equiliberte.org Circuit NON ACCESSIBLE aux attelages
Départ au gîte Coeur de Village https://gitecoeurdevillage.wixsite.com/porteduquercy]]></desc>
  </metadata>
  <wpt lat="44.42028" lon="1.14492">
    <ele>147.5</ele>
    <name><![CDATA[46800 Coeur de Village]]></name>
    <desc><![CDATA[ Le Bourg - Le Boulvé
46800 Porte du Quercy
06.37.96.14.10​
gitecoeurdevillage@hotmail.com
https://gitecoeurdevillage.wixsite.com/porteduquercy]]></desc>
    <type><![CDATA[hotel]]></type>
  </wpt>
  <trk>
    <name><![CDATA[46 - Porte-du-Quercy : le Boulvé : sud-ouest : grand parcours 2019]]></name>
    <extensions>
      <line xmlns="http://www.topografix.com/GPX/gpx_style/0/2">
        <color>008080</color>
        <opacity>0.9</opacity>
        <width>5</width>
      </line>
    </extensions>
    <trkseg>
      <trkpt lat="44.4194" lon="1.14426">
        <ele>150</ele>
        <time>2021-06-01T14:00:25Z</time>
      </trkpt>
      <trkpt lat="44.41977" lon="1.14363">
        <ele>150</ele>
        <time>2021-06-01T14:01:12Z</time>
      </trkpt>
      <trkpt lat="44.42007" lon="1.14345">
        <ele>151</ele>
        <time>2021-06-01T14:01:38Z</time>
      </trkpt>
      <trkpt lat="44.42091" lon="1.14365">
        <ele>148</ele>
        <time>2021-06-01T14:02:46Z</time>
      </trkpt>
      <trkpt lat="44.42135" lon="1.14363">
        <ele>147</ele>
        <time>2021-06-01T14:03:21Z</time>
      </trkpt>
      <trkpt lat="44.42247" lon="1.14285">
        <ele>146</ele>
        <time>2021-06-01T14:05:01Z</time>
      </trkpt>
      <trkpt lat="44.42257" lon="1.14204">
        <ele>150</ele>
        <time>2021-06-01T14:05:48Z</time>
      </trkpt>
      <trkpt lat="44.42265" lon="1.14192">
        <ele>151</ele>
        <time>2021-06-01T14:05:58Z</time>
      </trkpt>
      <trkpt lat="44.42332" lon="1.14136">
        <ele>155</ele>
        <time>2021-06-01T14:07:00Z</time>
      </trkpt>
      <trkpt lat="44.42395" lon="1.14116">
        <ele>155</ele>
        <time>2021-06-01T14:07:52Z</time>
      </trkpt>
      <trkpt lat="44.42545" lon="1.14114">
        <ele>150</ele>
        <time>2021-06-01T14:09:52Z</time>
      </trkpt>
      <trkpt lat="44.42632" lon="1.14091">
        <ele>147</ele>
        <time>2021-06-01T14:11:03Z</time>
      </trkpt>
      <trkpt lat="44.42785" lon="1.14056">
        <ele>142</ele>
        <time>2021-06-01T14:13:07Z</time>
      </trkpt>
      <trkpt lat="44.42865" lon="1.13943">
        <ele>142</ele>
        <time>2021-06-01T14:14:38Z</time>
      </trkpt>
      <trkpt lat="44.42945" lon="1.13832">
        <ele>142</ele>
        <time>2021-06-01T14:16:08Z</time>
      </trkpt>
      <trkpt lat="44.43017" lon="1.13764">
        <ele>143</ele>
        <time>2021-06-01T14:17:18Z</time>
      </trkpt>
      <trkpt lat="44.43113" lon="1.13721">
        <ele>138</ele>
        <time>2021-06-01T14:18:39Z</time>
      </trkpt>
      <trkpt lat="44.43181" lon="1.13613">
        <ele>140</ele>
        <time>2021-06-01T14:20:01Z</time>
      </trkpt>
      <trkpt lat="44.43209" lon="1.13589">
        <ele>140</ele>
        <time>2021-06-01T14:20:27Z</time>
      </trkpt>
      <trkpt lat="44.43283" lon="1.13533">
        <ele>140</ele>
        <time>2021-06-01T14:21:34Z</time>
      </trkpt>
      <trkpt lat="44.43336" lon="1.13511">
        <ele>138</ele>
        <time>2021-06-01T14:22:19Z</time>
      </trkpt>
      <trkpt lat="44.43374" lon="1.13513">
        <ele>136</ele>
        <time>2021-06-01T14:22:49Z</time>
      </trkpt>
      <trkpt lat="44.43443" lon="1.13446">
        <ele>133</ele>
        <time>2021-06-01T14:23:56Z</time>
      </trkpt>
      <trkpt lat="44.4348" lon="1.13475">
        <ele>131</ele>
        <time>2021-06-01T14:24:30Z</time>
      </trkpt>
      <trkpt lat="44.43528" lon="1.1332">
        <ele>134</ele>
        <time>2021-06-01T14:26:07Z</time>
      </trkpt>
      <trkpt lat="44.43468" lon="1.13288">
        <ele>138</ele>
        <time>2021-06-01T14:26:58Z</time>
      </trkpt>
      <trkpt lat="44.4339" lon="1.1317">
        <ele>145</ele>
        <time>2021-06-01T14:28:30Z</time>
      </trkpt>
      <trkpt lat="44.43364" lon="1.13125">
        <ele>147</ele>
        <time>2021-06-01T14:29:03Z</time>
      </trkpt>
      <trkpt lat="44.43334" lon="1.13118">
        <ele>146</ele>
        <time>2021-06-01T14:29:28Z</time>
      </trkpt>
      <trkpt lat="44.43403" lon="1.13039">
        <ele>157</ele>
        <time>2021-06-01T14:30:39Z</time>
      </trkpt>
      <trkpt lat="44.43408" lon="1.13022">
        <ele>159</ele>
        <time>2021-06-01T14:30:50Z</time>
      </trkpt>
      <trkpt lat="44.43401" lon="1.12971">
        <ele>160</ele>
        <time>2021-06-01T14:31:19Z</time>
      </trkpt>
      <trkpt lat="44.43411" lon="1.12942">
        <ele>163</ele>
        <time>2021-06-01T14:31:38Z</time>
      </trkpt>
      <trkpt lat="44.43419" lon="1.12837">
        <ele>165</ele>
        <time>2021-06-01T14:32:38Z</time>
      </trkpt>
      <trkpt lat="44.43417" lon="1.12817">
        <ele>164</ele>
        <time>2021-06-01T14:32:50Z</time>
      </trkpt>
      <trkpt lat="44.43401" lon="1.1279">
        <ele>160</ele>
        <time>2021-06-01T14:33:10Z</time>
      </trkpt>
      <trkpt lat="44.43394" lon="1.12762">
        <ele>159</ele>
        <time>2021-06-01T14:33:27Z</time>
      </trkpt>
      <trkpt lat="44.43406" lon="1.12706">
        <ele>162</ele>
        <time>2021-06-01T14:34:00Z</time>
      </trkpt>
      <trkpt lat="44.43404" lon="1.12648">
        <ele>162</ele>
        <time>2021-06-01T14:34:33Z</time>
      </trkpt>
      <trkpt lat="44.43417" lon="1.12616">
        <ele>165</ele>
        <time>2021-06-01T14:34:54Z</time>
      </trkpt>
      <trkpt lat="44.43421" lon="1.12377">
        <ele>166</ele>
        <time>2021-06-01T14:37:11Z</time>
      </trkpt>
      <trkpt lat="44.43425" lon="1.12286">
        <ele>166</ele>
        <time>2021-06-01T14:38:03Z</time>
      </trkpt>
      <trkpt lat="44.4344" lon="1.1222">
        <ele>168</ele>
        <time>2021-06-01T14:38:43Z</time>
      </trkpt>
      <trkpt lat="44.43456" lon="1.12186">
        <ele>169</ele>
        <time>2021-06-01T14:39:06Z</time>
      </trkpt>
      <trkpt lat="44.43483" lon="1.12161">
        <ele>169</ele>
        <time>2021-06-01T14:39:32Z</time>
      </trkpt>
      <trkpt lat="44.43503" lon="1.12112">
        <ele>168</ele>
        <time>2021-06-01T14:40:04Z</time>
      </trkpt>
      <trkpt lat="44.4353" lon="1.12073">
        <ele>170</ele>
        <time>2021-06-01T14:40:35Z</time>
      </trkpt>
      <trkpt lat="44.43557" lon="1.12025">
        <ele>173</ele>
        <time>2021-06-01T14:41:10Z</time>
      </trkpt>
      <trkpt lat="44.43561" lon="1.12006">
        <ele>173</ele>
        <time>2021-06-01T14:41:22Z</time>
      </trkpt>
      <trkpt lat="44.43562" lon="1.11959">
        <ele>175</ele>
        <time>2021-06-01T14:41:48Z</time>
      </trkpt>
      <trkpt lat="44.43553" lon="1.11836">
        <ele>180</ele>
        <time>2021-06-01T14:42:59Z</time>
      </trkpt>
      <trkpt lat="44.4356" lon="1.11713">
        <ele>185</ele>
        <time>2021-06-01T14:44:10Z</time>
      </trkpt>
      <trkpt lat="44.43564" lon="1.11589">
        <ele>188</ele>
        <time>2021-06-01T14:45:21Z</time>
      </trkpt>
      <trkpt lat="44.43604" lon="1.11505">
        <ele>191</ele>
        <time>2021-06-01T14:46:18Z</time>
      </trkpt>
      <trkpt lat="44.43605" lon="1.11472">
        <ele>193</ele>
        <time>2021-06-01T14:46:37Z</time>
      </trkpt>
      <trkpt lat="44.43592" lon="1.11463">
        <ele>192</ele>
        <time>2021-06-01T14:46:49Z</time>
      </trkpt>
      <trkpt lat="44.43566" lon="1.11468">
        <ele>189</ele>
        <time>2021-06-01T14:47:10Z</time>
      </trkpt>
      <trkpt lat="44.4353" lon="1.11457">
        <ele>186</ele>
        <time>2021-06-01T14:47:39Z</time>
      </trkpt>
      <trkpt lat="44.43505" lon="1.11404">
        <ele>186</ele>
        <time>2021-06-01T14:48:16Z</time>
      </trkpt>
      <trkpt lat="44.43474" lon="1.11312">
        <ele>192</ele>
        <time>2021-06-01T14:49:14Z</time>
      </trkpt>
      <trkpt lat="44.43445" lon="1.1123">
        <ele>198</ele>
        <time>2021-06-01T14:50:06Z</time>
      </trkpt>
      <trkpt lat="44.43421" lon="1.11191">
        <ele>198</ele>
        <time>2021-06-01T14:50:36Z</time>
      </trkpt>
      <trkpt lat="44.43436" lon="1.11144">
        <ele>205</ele>
        <time>2021-06-01T14:51:05Z</time>
      </trkpt>
      <trkpt lat="44.43436" lon="1.1111">
        <ele>208</ele>
        <time>2021-06-01T14:51:24Z</time>
      </trkpt>
      <trkpt lat="44.43425" lon="1.11044">
        <ele>211</ele>
        <time>2021-06-01T14:52:03Z</time>
      </trkpt>
      <trkpt lat="44.43442" lon="1.11006">
        <ele>216</ele>
        <time>2021-06-01T14:52:29Z</time>
      </trkpt>
      <trkpt lat="44.43496" lon="1.10973">
        <ele>226</ele>
        <time>2021-06-01T14:53:16Z</time>
      </trkpt>
      <trkpt lat="44.43456" lon="1.10849">
        <ele>225</ele>
        <time>2021-06-01T14:54:34Z</time>
      </trkpt>
      <trkpt lat="44.43439" lon="1.10842">
        <ele>223</ele>
        <time>2021-06-01T14:54:48Z</time>
      </trkpt>
      <trkpt lat="44.43356" lon="1.10729">
        <ele>232</ele>
        <time>2021-06-01T14:56:21Z</time>
      </trkpt>
      <trkpt lat="44.43353" lon="1.10693">
        <ele>240</ele>
        <time>2021-06-01T14:56:41Z</time>
      </trkpt>
      <trkpt lat="44.43366" lon="1.10648">
        <ele>248</ele>
        <time>2021-06-01T14:57:09Z</time>
      </trkpt>
      <trkpt lat="44.43379" lon="1.10626">
        <ele>250</ele>
        <time>2021-06-01T14:57:25Z</time>
      </trkpt>
      <trkpt lat="44.43339" lon="1.10543">
        <ele>255</ele>
        <time>2021-06-01T14:58:23Z</time>
      </trkpt>
      <trkpt lat="44.43312" lon="1.10542">
        <ele>254</ele>
        <time>2021-06-01T14:58:44Z</time>
      </trkpt>
      <trkpt lat="44.43255" lon="1.10496">
        <ele>254</ele>
        <time>2021-06-01T14:59:37Z</time>
      </trkpt>
      <trkpt lat="44.43207" lon="1.10466">
        <ele>252</ele>
        <time>2021-06-01T15:00:19Z</time>
      </trkpt>
      <trkpt lat="44.43164" lon="1.10418">
        <ele>252</ele>
        <time>2021-06-01T15:01:03Z</time>
      </trkpt>
      <trkpt lat="44.43155" lon="1.10395">
        <ele>251</ele>
        <time>2021-06-01T15:01:18Z</time>
      </trkpt>
      <trkpt lat="44.43021" lon="1.10401">
        <ele>249</ele>
        <time>2021-06-01T15:03:05Z</time>
      </trkpt>
      <trkpt lat="44.42957" lon="1.10398">
        <ele>251</ele>
        <time>2021-06-01T15:03:57Z</time>
      </trkpt>
      <trkpt lat="44.42872" lon="1.1032">
        <ele>253</ele>
        <time>2021-06-01T15:05:18Z</time>
      </trkpt>
      <trkpt lat="44.42863" lon="1.10271">
        <ele>252</ele>
        <time>2021-06-01T15:05:47Z</time>
      </trkpt>
      <trkpt lat="44.42865" lon="1.10196">
        <ele>252</ele>
        <time>2021-06-01T15:06:30Z</time>
      </trkpt>
      <trkpt lat="44.4286" lon="1.10169">
        <ele>252</ele>
        <time>2021-06-01T15:06:46Z</time>
      </trkpt>
      <trkpt lat="44.4284" lon="1.10147">
        <ele>252</ele>
        <time>2021-06-01T15:07:06Z</time>
      </trkpt>
      <trkpt lat="44.42815" lon="1.10133">
        <ele>253</ele>
        <time>2021-06-01T15:07:28Z</time>
      </trkpt>
      <trkpt lat="44.42753" lon="1.10102">
        <ele>256</ele>
        <time>2021-06-01T15:08:21Z</time>
      </trkpt>
      <trkpt lat="44.42707" lon="1.10004">
        <ele>260</ele>
        <time>2021-06-01T15:09:28Z</time>
      </trkpt>
      <trkpt lat="44.42661" lon="1.09909">
        <ele>257</ele>
        <time>2021-06-01T15:10:33Z</time>
      </trkpt>
      <trkpt lat="44.42612" lon="1.09826">
        <ele>259</ele>
        <time>2021-06-01T15:11:35Z</time>
      </trkpt>
      <trkpt lat="44.42498" lon="1.0965">
        <ele>259</ele>
        <time>2021-06-01T15:13:51Z</time>
      </trkpt>
      <trkpt lat="44.4247" lon="1.09576">
        <ele>259</ele>
        <time>2021-06-01T15:14:39Z</time>
      </trkpt>
      <trkpt lat="44.42292" lon="1.09392">
        <ele>250</ele>
        <time>2021-06-01T15:17:36Z</time>
      </trkpt>
      <trkpt lat="44.42155" lon="1.091">
        <ele>254</ele>
        <time>2021-06-01T15:20:55Z</time>
      </trkpt>
      <trkpt lat="44.42068" lon="1.08968">
        <ele>249</ele>
        <time>2021-06-01T15:22:38Z</time>
      </trkpt>
      <trkpt lat="44.42015" lon="1.08843">
        <ele>245</ele>
        <time>2021-06-01T15:24:01Z</time>
      </trkpt>
      <trkpt lat="44.41979" lon="1.08726">
        <ele>243</ele>
        <time>2021-06-01T15:25:14Z</time>
      </trkpt>
      <trkpt lat="44.41968" lon="1.08636">
        <ele>240</ele>
        <time>2021-06-01T15:26:06Z</time>
      </trkpt>
      <trkpt lat="44.4191" lon="1.08636">
        <ele>239</ele>
        <time>2021-06-01T15:26:53Z</time>
      </trkpt>
      <trkpt lat="44.41867" lon="1.08607">
        <ele>237</ele>
        <time>2021-06-01T15:27:31Z</time>
      </trkpt>
      <trkpt lat="44.41836" lon="1.08577">
        <ele>236</ele>
        <time>2021-06-01T15:28:01Z</time>
      </trkpt>
      <trkpt lat="44.41801" lon="1.0858">
        <ele>234</ele>
        <time>2021-06-01T15:28:29Z</time>
      </trkpt>
      <trkpt lat="44.41805" lon="1.08434">
        <ele>231</ele>
        <time>2021-06-01T15:29:53Z</time>
      </trkpt>
      <trkpt lat="44.41793" lon="1.08414">
        <ele>230</ele>
        <time>2021-06-01T15:30:08Z</time>
      </trkpt>
      <trkpt lat="44.41698" lon="1.08292">
        <ele>230</ele>
        <time>2021-06-01T15:31:51Z</time>
      </trkpt>
      <trkpt lat="44.41672" lon="1.08228">
        <ele>229</ele>
        <time>2021-06-01T15:32:33Z</time>
      </trkpt>
      <trkpt lat="44.41603" lon="1.08064">
        <ele>224</ele>
        <time>2021-06-01T15:34:22Z</time>
      </trkpt>
      <trkpt lat="44.41562" lon="1.07971">
        <ele>222</ele>
        <time>2021-06-01T15:35:24Z</time>
      </trkpt>
      <trkpt lat="44.41576" lon="1.07922">
        <ele>223</ele>
        <time>2021-06-01T15:35:55Z</time>
      </trkpt>
      <trkpt lat="44.4158" lon="1.0781">
        <ele>225</ele>
        <time>2021-06-01T15:36:59Z</time>
      </trkpt>
      <trkpt lat="44.41587" lon="1.07786">
        <ele>226</ele>
        <time>2021-06-01T15:37:14Z</time>
      </trkpt>
      <trkpt lat="44.41548" lon="1.07753">
        <ele>224</ele>
        <time>2021-06-01T15:37:50Z</time>
      </trkpt>
      <trkpt lat="44.41525" lon="1.07755">
        <ele>221</ele>
        <time>2021-06-01T15:38:09Z</time>
      </trkpt>
      <trkpt lat="44.41389" lon="1.07795">
        <ele>217</ele>
        <time>2021-06-01T15:40:00Z</time>
      </trkpt>
      <trkpt lat="44.4139" lon="1.07835">
        <ele>217</ele>
        <time>2021-06-01T15:40:23Z</time>
      </trkpt>
      <trkpt lat="44.41383" lon="1.07859">
        <ele>217</ele>
        <time>2021-06-01T15:40:38Z</time>
      </trkpt>
      <trkpt lat="44.4131" lon="1.07957">
        <ele>220</ele>
        <time>2021-06-01T15:41:59Z</time>
      </trkpt>
      <trkpt lat="44.41242" lon="1.08009">
        <ele>225</ele>
        <time>2021-06-01T15:43:01Z</time>
      </trkpt>
      <trkpt lat="44.41143" lon="1.08026">
        <ele>232</ele>
        <time>2021-06-01T15:44:20Z</time>
      </trkpt>
      <trkpt lat="44.41058" lon="1.08108">
        <ele>237</ele>
        <time>2021-06-01T15:45:43Z</time>
      </trkpt>
      <trkpt lat="44.40965" lon="1.08136">
        <ele>238</ele>
        <time>2021-06-01T15:46:59Z</time>
      </trkpt>
      <trkpt lat="44.40837" lon="1.08175">
        <ele>237</ele>
        <time>2021-06-01T15:48:44Z</time>
      </trkpt>
      <trkpt lat="44.40752" lon="1.08164">
        <ele>237</ele>
        <time>2021-06-01T15:49:52Z</time>
      </trkpt>
      <trkpt lat="44.40724" lon="1.08162">
        <ele>237</ele>
        <time>2021-06-01T15:50:15Z</time>
      </trkpt>
      <trkpt lat="44.407" lon="1.08158">
        <ele>237</ele>
        <time>2021-06-01T15:50:34Z</time>
      </trkpt>
      <trkpt lat="44.40728" lon="1.08294">
        <ele>238</ele>
        <time>2021-06-01T15:51:55Z</time>
      </trkpt>
      <trkpt lat="44.4078" lon="1.08478">
        <ele>235</ele>
        <time>2021-06-01T15:53:48Z</time>
      </trkpt>
      <trkpt lat="44.40824" lon="1.08616">
        <ele>239</ele>
        <time>2021-06-01T15:55:15Z</time>
      </trkpt>
      <trkpt lat="44.40839" lon="1.0871">
        <ele>242</ele>
        <time>2021-06-01T15:56:10Z</time>
      </trkpt>
      <trkpt lat="44.40847" lon="1.08829">
        <ele>238</ele>
        <time>2021-06-01T15:57:18Z</time>
      </trkpt>
      <trkpt lat="44.40843" lon="1.0893">
        <ele>237</ele>
        <time>2021-06-01T15:58:16Z</time>
      </trkpt>
      <trkpt lat="44.4084" lon="1.09001">
        <ele>237</ele>
        <time>2021-06-01T15:58:57Z</time>
      </trkpt>
      <trkpt lat="44.4074" lon="1.0899">
        <ele>240</ele>
        <time>2021-06-01T16:00:17Z</time>
      </trkpt>
      <trkpt lat="44.40727" lon="1.09029">
        <ele>240</ele>
        <time>2021-06-01T16:00:42Z</time>
      </trkpt>
      <trkpt lat="44.4072" lon="1.09086">
        <ele>239</ele>
        <time>2021-06-01T16:01:15Z</time>
      </trkpt>
      <trkpt lat="44.40727" lon="1.09154">
        <ele>235</ele>
        <time>2021-06-01T16:01:54Z</time>
      </trkpt>
      <trkpt lat="44.40475" lon="1.09355">
        <ele>234</ele>
        <time>2021-06-01T16:05:46Z</time>
      </trkpt>
      <trkpt lat="44.4061" lon="1.09525">
        <ele>242</ele>
        <time>2021-06-01T16:08:12Z</time>
      </trkpt>
      <trkpt lat="44.40642" lon="1.09533">
        <ele>241</ele>
        <time>2021-06-01T16:08:38Z</time>
      </trkpt>
      <trkpt lat="44.40645" lon="1.09593">
        <ele>240</ele>
        <time>2021-06-01T16:09:12Z</time>
      </trkpt>
      <trkpt lat="44.40684" lon="1.0984">
        <ele>244</ele>
        <time>2021-06-01T16:11:37Z</time>
      </trkpt>
      <trkpt lat="44.40648" lon="1.10037">
        <ele>246</ele>
        <time>2021-06-01T16:13:33Z</time>
      </trkpt>
      <trkpt lat="44.40586" lon="1.10377">
        <ele>245</ele>
        <time>2021-06-01T16:16:54Z</time>
      </trkpt>
      <trkpt lat="44.40491" lon="1.1065">
        <ele>238</ele>
        <time>2021-06-01T16:19:48Z</time>
      </trkpt>
      <trkpt lat="44.40387" lon="1.10828">
        <ele>244</ele>
        <time>2021-06-01T16:21:59Z</time>
      </trkpt>
      <trkpt lat="44.40294" lon="1.1093">
        <ele>244</ele>
        <time>2021-06-01T16:23:34Z</time>
      </trkpt>
      <trkpt lat="44.40189" lon="1.11237">
        <ele>246</ele>
        <time>2021-06-01T16:26:48Z</time>
      </trkpt>
      <trkpt lat="44.40156" lon="1.11479">
        <ele>256</ele>
        <time>2021-06-01T16:29:09Z</time>
      </trkpt>
      <trkpt lat="44.40167" lon="1.11702">
        <ele>257</ele>
        <time>2021-06-01T16:31:17Z</time>
      </trkpt>
      <trkpt lat="44.40145" lon="1.11742">
        <ele>258</ele>
        <time>2021-06-01T16:31:46Z</time>
      </trkpt>
      <trkpt lat="44.40221" lon="1.11775">
        <ele>253</ele>
        <time>2021-06-01T16:32:50Z</time>
      </trkpt>
      <trkpt lat="44.40283" lon="1.11748">
        <ele>250</ele>
        <time>2021-06-01T16:33:42Z</time>
      </trkpt>
      <trkpt lat="44.40313" lon="1.11737">
        <ele>249</ele>
        <time>2021-06-01T16:34:07Z</time>
      </trkpt>
      <trkpt lat="44.40341" lon="1.11736">
        <ele>248</ele>
        <time>2021-06-01T16:34:29Z</time>
      </trkpt>
      <trkpt lat="44.40391" lon="1.1178">
        <ele>248</ele>
        <time>2021-06-01T16:35:16Z</time>
      </trkpt>
      <trkpt lat="44.40487" lon="1.11827">
        <ele>256</ele>
        <time>2021-06-01T16:36:38Z</time>
      </trkpt>
      <trkpt lat="44.40538" lon="1.11881">
        <ele>258</ele>
        <time>2021-06-01T16:37:29Z</time>
      </trkpt>
      <trkpt lat="44.4061" lon="1.11797">
        <ele>255</ele>
        <time>2021-06-01T16:38:44Z</time>
      </trkpt>
      <trkpt lat="44.40769" lon="1.11616">
        <ele>249</ele>
        <time>2021-06-01T16:41:28Z</time>
      </trkpt>
      <trkpt lat="44.40857" lon="1.11532">
        <ele>246</ele>
        <time>2021-06-01T16:42:53Z</time>
      </trkpt>
      <trkpt lat="44.40974" lon="1.11291">
        <ele>245</ele>
        <time>2021-06-01T16:45:40Z</time>
      </trkpt>
      <trkpt lat="44.41008" lon="1.11152">
        <ele>242</ele>
        <time>2021-06-01T16:47:04Z</time>
      </trkpt>
      <trkpt lat="44.41026" lon="1.11091">
        <ele>240</ele>
        <time>2021-06-01T16:47:42Z</time>
      </trkpt>
      <trkpt lat="44.41023" lon="1.11035">
        <ele>240</ele>
        <time>2021-06-01T16:48:14Z</time>
      </trkpt>
      <trkpt lat="44.41004" lon="1.10984">
        <ele>241</ele>
        <time>2021-06-01T16:48:47Z</time>
      </trkpt>
      <trkpt lat="44.41004" lon="1.10941">
        <ele>240</ele>
        <time>2021-06-01T16:49:12Z</time>
      </trkpt>
      <trkpt lat="44.4099" lon="1.10913">
        <ele>240</ele>
        <time>2021-06-01T16:49:31Z</time>
      </trkpt>
      <trkpt lat="44.41005" lon="1.10889">
        <ele>240</ele>
        <time>2021-06-01T16:49:49Z</time>
      </trkpt>
      <trkpt lat="44.41012" lon="1.10825">
        <ele>240</ele>
        <time>2021-06-01T16:50:26Z</time>
      </trkpt>
      <trkpt lat="44.41053" lon="1.10751">
        <ele>235</ele>
        <time>2021-06-01T16:51:20Z</time>
      </trkpt>
      <trkpt lat="44.41102" lon="1.107">
        <ele>229</ele>
        <time>2021-06-01T16:52:09Z</time>
      </trkpt>
      <trkpt lat="44.41148" lon="1.1068">
        <ele>223</ele>
        <time>2021-06-01T16:52:47Z</time>
      </trkpt>
      <trkpt lat="44.41193" lon="1.10694">
        <ele>218</ele>
        <time>2021-06-01T16:53:24Z</time>
      </trkpt>
      <trkpt lat="44.41263" lon="1.10749">
        <ele>205</ele>
        <time>2021-06-01T16:54:29Z</time>
      </trkpt>
      <trkpt lat="44.41312" lon="1.1079">
        <ele>201</ele>
        <time>2021-06-01T16:55:14Z</time>
      </trkpt>
      <trkpt lat="44.41338" lon="1.10844">
        <ele>196</ele>
        <time>2021-06-01T16:55:51Z</time>
      </trkpt>
      <trkpt lat="44.41356" lon="1.10947">
        <ele>191</ele>
        <time>2021-06-01T16:56:52Z</time>
      </trkpt>
      <trkpt lat="44.41371" lon="1.11015">
        <ele>187</ele>
        <time>2021-06-01T16:57:33Z</time>
      </trkpt>
      <trkpt lat="44.41417" lon="1.11124">
        <ele>181</ele>
        <time>2021-06-01T16:58:45Z</time>
      </trkpt>
      <trkpt lat="44.41453" lon="1.11123">
        <ele>179</ele>
        <time>2021-06-01T16:59:14Z</time>
      </trkpt>
      <trkpt lat="44.41481" lon="1.11175">
        <ele>177</ele>
        <time>2021-06-01T16:59:51Z</time>
      </trkpt>
      <trkpt lat="44.41383" lon="1.11241">
        <ele>184</ele>
        <time>2021-06-01T17:01:18Z</time>
      </trkpt>
      <trkpt lat="44.41363" lon="1.11343">
        <ele>189</ele>
        <time>2021-06-01T17:02:19Z</time>
      </trkpt>
      <trkpt lat="44.41396" lon="1.1136">
        <ele>185</ele>
        <time>2021-06-01T17:02:47Z</time>
      </trkpt>
      <trkpt lat="44.41459" lon="1.11474">
        <ele>174</ele>
        <time>2021-06-01T17:04:09Z</time>
      </trkpt>
      <trkpt lat="44.41566" lon="1.11669">
        <ele>166</ele>
        <time>2021-06-01T17:06:30Z</time>
      </trkpt>
      <trkpt lat="44.41582" lon="1.1167">
        <ele>166</ele>
        <time>2021-06-01T17:06:43Z</time>
      </trkpt>
      <trkpt lat="44.41605" lon="1.11708">
        <ele>162</ele>
        <time>2021-06-01T17:07:11Z</time>
      </trkpt>
      <trkpt lat="44.41657" lon="1.1179">
        <ele>157</ele>
        <time>2021-06-01T17:08:14Z</time>
      </trkpt>
      <trkpt lat="44.41693" lon="1.11849">
        <ele>158</ele>
        <time>2021-06-01T17:08:59Z</time>
      </trkpt>
      <trkpt lat="44.4171" lon="1.1188">
        <ele>162</ele>
        <time>2021-06-01T17:09:21Z</time>
      </trkpt>
      <trkpt lat="44.41706" lon="1.11933">
        <ele>165</ele>
        <time>2021-06-01T17:09:51Z</time>
      </trkpt>
      <trkpt lat="44.41697" lon="1.11981">
        <ele>166</ele>
        <time>2021-06-01T17:10:20Z</time>
      </trkpt>
      <trkpt lat="44.41724" lon="1.12127">
        <ele>173</ele>
        <time>2021-06-01T17:11:46Z</time>
      </trkpt>
      <trkpt lat="44.41742" lon="1.12262">
        <ele>172</ele>
        <time>2021-06-01T17:13:05Z</time>
      </trkpt>
      <trkpt lat="44.41765" lon="1.12416">
        <ele>176</ele>
        <time>2021-06-01T17:14:34Z</time>
      </trkpt>
      <trkpt lat="44.41776" lon="1.12523">
        <ele>182</ele>
        <time>2021-06-01T17:15:36Z</time>
      </trkpt>
      <trkpt lat="44.41781" lon="1.12572">
        <ele>185</ele>
        <time>2021-06-01T17:16:05Z</time>
      </trkpt>
      <trkpt lat="44.41823" lon="1.12965">
        <ele>207</ele>
        <time>2021-06-01T17:19:52Z</time>
      </trkpt>
      <trkpt lat="44.41847" lon="1.12944">
        <ele>209</ele>
        <time>2021-06-01T17:20:15Z</time>
      </trkpt>
      <trkpt lat="44.41861" lon="1.12861">
        <ele>212</ele>
        <time>2021-06-01T17:21:03Z</time>
      </trkpt>
      <trkpt lat="44.4188" lon="1.12965">
        <ele>221</ele>
        <time>2021-06-01T17:22:05Z</time>
      </trkpt>
      <trkpt lat="44.41921" lon="1.1305">
        <ele>233</ele>
        <time>2021-06-01T17:23:03Z</time>
      </trkpt>
      <trkpt lat="44.41914" lon="1.13113">
        <ele>236</ele>
        <time>2021-06-01T17:23:40Z</time>
      </trkpt>
      <trkpt lat="44.41885" lon="1.13179">
        <ele>241</ele>
        <time>2021-06-01T17:24:24Z</time>
      </trkpt>
      <trkpt lat="44.41868" lon="1.13224">
        <ele>240</ele>
        <time>2021-06-01T17:24:53Z</time>
      </trkpt>
      <trkpt lat="44.4189" lon="1.13219">
        <ele>242</ele>
        <time>2021-06-01T17:25:11Z</time>
      </trkpt>
      <trkpt lat="44.41924" lon="1.13285">
        <ele>244</ele>
        <time>2021-06-01T17:25:58Z</time>
      </trkpt>
      <trkpt lat="44.41979" lon="1.13369">
        <ele>239</ele>
        <time>2021-06-01T17:27:03Z</time>
      </trkpt>
      <trkpt lat="44.42019" lon="1.13418">
        <ele>239</ele>
        <time>2021-06-01T17:27:45Z</time>
      </trkpt>
      <trkpt lat="44.42073" lon="1.13512">
        <ele>241</ele>
        <time>2021-06-01T17:28:54Z</time>
      </trkpt>
      <trkpt lat="44.4203" lon="1.1411">
        <ele>170</ele>
        <time>2021-06-01T17:34:38Z</time>
      </trkpt>
      <trkpt lat="44.42032" lon="1.14149">
        <ele>167</ele>
        <time>2021-06-01T17:35:00Z</time>
      </trkpt>
      <trkpt lat="44.41996" lon="1.14197">
        <ele>162</ele>
        <time>2021-06-01T17:35:40Z</time>
      </trkpt>
      <trkpt lat="44.42024" lon="1.14307">
        <ele>152</ele>
        <time>2021-06-01T17:36:47Z</time>
      </trkpt>
      <trkpt lat="44.42027" lon="1.14329">
        <ele>151</ele>
        <time>2021-06-01T17:37:00Z</time>
      </trkpt>
      <trkpt lat="44.41997" lon="1.14344">
        <ele>151</ele>
        <time>2021-06-01T17:37:25Z</time>
      </trkpt>
      <trkpt lat="44.41965" lon="1.14386">
        <ele>150</ele>
        <time>2021-06-01T17:38:00Z</time>
      </trkpt>
      <trkpt lat="44.4194" lon="1.14429">
        <ele>150</ele>
        <time>2021-06-01T17:38:32Z</time>
      </trkpt>
    </trkseg>
  </trk>
</gpx>